createdAt,value
2019-02-02T00:02:32.833Z,15.70
2019-02-02T00:05:02.892Z,14.20
2019-02-02T00:07:32.920Z,16.77
2019-02-02T00:10:09.167Z,17.50
2019-02-02T00:12:52.216Z,13.65
2019-02-02T00:15:22.280Z,11.57
2019-02-02T00:17:52.327Z,17.93
2019-02-02T00:20:22.296Z,15.33
2019-02-02T00:22:52.290Z,18.10
2019-02-02T00:25:22.944Z,16.80
2019-02-02T00:27:54.903Z,16.23
2019-02-02T00:30:25.163Z,14.60
2019-02-02T00:32:55.239Z,17.00
2019-02-02T00:35:25.305Z,17.83
2019-02-02T00:37:55.293Z,14.23
2019-02-02T00:40:25.394Z,14.20
2019-02-02T00:42:55.348Z,15.25
2019-02-02T00:45:25.345Z,19.50
2019-02-02T00:47:55.438Z,17.80
2019-02-02T00:50:25.283Z,17.57
2019-02-02T00:52:55.365Z,12.63
2019-02-02T00:55:25.306Z,12.37
2019-02-02T00:57:55.252Z,18.73
2019-02-02T01:00:28.993Z,15.30
2019-02-02T01:02:59.040Z,17.77
2019-02-02T01:05:29.106Z,16.80
2019-02-02T01:07:59.145Z,15.13
2019-02-02T01:10:32.431Z,16.50
2019-02-02T01:13:07.954Z,12.87
2019-02-02T01:15:38.073Z,13.62
2019-02-02T01:18:07.892Z,10.37
2019-02-02T01:20:37.973Z,14.10
2019-02-02T01:23:08.691Z,14.07
2019-02-02T01:25:38.920Z,15.23
2019-02-02T01:28:08.828Z,9.33
2019-02-02T01:30:38.971Z,11.80
2019-02-02T01:33:08.935Z,11.07
2019-02-02T01:35:38.809Z,15.23
2019-02-02T01:38:08.742Z,12.20
2019-02-02T01:40:39.828Z,12.33
2019-02-02T01:43:09.961Z,13.30
2019-02-02T01:45:39.897Z,10.33
2019-02-02T01:48:09.897Z,14.30
2019-02-02T01:50:39.827Z,13.22
2019-02-02T01:53:09.670Z,20.73
2019-02-02T01:55:39.626Z,13.80
2019-02-02T01:58:16.319Z,12.03
2019-02-02T02:00:41.406Z,11.87
2019-02-02T02:03:11.348Z,10.97
2019-02-02T02:05:41.341Z,14.60
2019-02-02T02:08:13.414Z,13.20
2019-02-02T02:10:43.432Z,16.13
2019-02-02T02:13:13.946Z,19.07
2019-02-02T02:15:45.135Z,18.02
2019-02-02T02:18:15.857Z,18.00
2019-02-02T02:20:45.642Z,16.17
2019-02-02T02:23:15.704Z,18.97
2019-02-02T02:25:46.048Z,17.13
2019-02-02T02:28:27.245Z,19.07
2019-02-02T02:30:47.686Z,23.83
2019-02-02T02:33:17.883Z,18.90
2019-02-02T02:35:48.045Z,20.02
2019-02-02T02:38:17.989Z,17.20
2019-02-02T02:40:47.864Z,17.00
2019-02-02T02:43:17.917Z,21.90
2019-02-02T02:45:48.154Z,20.47
2019-02-02T02:48:19.696Z,19.70
2019-02-02T02:50:50.021Z,19.27
2019-02-02T02:53:20.394Z,20.77
2019-02-02T02:55:50.351Z,22.87
2019-02-02T02:58:20.623Z,22.43
2019-02-02T03:00:50.664Z,19.20
2019-02-02T03:03:21.059Z,20.45
2019-02-02T03:05:50.998Z,20.43
2019-02-02T03:08:20.953Z,24.80
2019-02-02T03:10:50.980Z,18.87
2019-02-02T03:13:20.968Z,21.10
2019-02-02T03:15:51.131Z,19.73
2019-02-02T03:18:21.131Z,22.07
2019-02-02T03:20:51.182Z,22.57
2019-02-02T03:23:21.132Z,19.87
2019-02-02T03:25:51.075Z,23.67
2019-02-02T03:28:28.817Z,23.60
2019-02-02T03:30:58.846Z,23.73
2019-02-02T03:33:29.085Z,24.10
2019-02-02T03:35:59.491Z,23.93
2019-02-02T03:38:29.590Z,20.60
2019-02-02T03:40:59.559Z,21.60
2019-02-02T03:43:29.721Z,22.53
2019-02-02T03:45:59.824Z,23.17
2019-02-02T03:48:30.029Z,22.07
2019-02-02T03:50:59.962Z,19.77
2019-02-02T03:53:30.286Z,19.70
2019-02-02T03:56:01.358Z,24.23
2019-02-02T03:58:31.301Z,24.23
2019-02-02T04:01:01.533Z,26.10
2019-02-02T04:03:31.706Z,23.47
2019-02-02T04:06:01.577Z,23.10
2019-02-02T04:08:31.639Z,23.37
2019-02-02T04:11:01.573Z,24.20
2019-02-02T04:13:31.594Z,21.50
2019-02-02T04:16:01.773Z,25.67
2019-02-02T04:18:31.575Z,24.17
2019-02-02T04:21:01.386Z,23.47
2019-02-02T04:23:31.216Z,25.30
2019-02-02T04:26:01.084Z,23.13
2019-02-02T04:28:31.008Z,23.67
2019-02-02T04:31:01.067Z,24.37
2019-02-02T04:33:31.061Z,21.37
2019-02-02T04:36:01.151Z,25.05
2019-02-02T04:38:31.089Z,23.03
2019-02-02T04:41:01.149Z,23.80
2019-02-02T04:43:31.088Z,26.17
2019-02-02T04:46:01.029Z,25.10
2019-02-02T04:48:32.559Z,24.37
2019-02-02T04:51:02.802Z,24.40
2019-02-02T04:53:32.965Z,25.17
2019-02-02T04:56:02.999Z,23.43
2019-02-02T04:58:32.963Z,27.57
2019-02-02T05:01:04.779Z,24.57
2019-02-02T05:03:36.193Z,26.17
2019-02-02T05:06:06.243Z,27.73
2019-02-02T05:08:36.109Z,24.63
2019-02-02T05:11:06.198Z,27.27
2019-02-02T05:13:36.090Z,24.10
2019-02-02T05:16:06.089Z,25.80
2019-02-02T05:18:36.193Z,26.83
2019-02-02T05:21:06.416Z,25.30
2019-02-02T05:23:36.328Z,29.93
2019-02-02T05:26:06.258Z,25.30
2019-02-02T05:28:37.999Z,27.50
2019-02-02T05:31:08.833Z,25.40
2019-02-02T05:33:39.862Z,26.87
2019-02-02T05:36:10.120Z,29.47
2019-02-02T05:38:40.213Z,28.33
2019-02-02T05:41:10.194Z,24.80
2019-02-02T05:43:42.923Z,25.37
2019-02-02T05:46:23.498Z,26.35
2019-02-02T05:48:53.381Z,26.48
2019-02-02T05:51:23.229Z,26.33
2019-02-02T05:53:53.028Z,26.17
2019-02-02T05:56:22.964Z,26.17
2019-02-02T05:58:52.772Z,23.60
2019-02-02T06:01:22.646Z,26.40
2019-02-02T06:03:52.587Z,27.17
2019-02-02T06:06:22.574Z,31.03
2019-02-02T06:08:52.428Z,25.57
2019-02-02T06:11:22.451Z,26.60
2019-02-02T06:13:52.516Z,24.30
2019-02-02T06:16:22.496Z,32.90
2019-02-02T06:18:52.462Z,25.60
2019-02-02T06:21:22.642Z,27.37
2019-02-02T06:23:52.452Z,24.03
2019-02-02T06:26:22.659Z,28.57
2019-02-02T06:28:52.741Z,28.30
2019-02-02T06:31:22.774Z,28.03
2019-02-02T06:33:53.089Z,26.87
2019-02-02T06:36:23.033Z,26.57
2019-02-02T06:38:52.896Z,26.10
2019-02-02T06:41:22.850Z,26.80
2019-02-02T06:43:52.668Z,28.03
2019-02-02T06:46:24.460Z,25.62
2019-02-02T06:48:56.065Z,25.70
2019-02-02T06:51:26.140Z,25.30
2019-02-02T06:53:56.111Z,25.57
2019-02-02T06:56:26.189Z,24.60
2019-02-02T06:58:56.188Z,26.43
2019-02-02T07:01:26.173Z,26.33
2019-02-02T07:03:55.931Z,28.30
2019-02-02T07:06:29.643Z,27.98
2019-02-02T07:09:03.732Z,26.03
2019-02-02T07:11:34.623Z,25.40
2019-02-02T07:14:04.706Z,29.73
2019-02-02T07:16:35.079Z,29.73
2019-02-02T07:19:05.159Z,27.25
2019-02-02T07:21:54.620Z,25.27
2019-02-02T07:24:27.788Z,31.57
2019-02-02T07:26:58.101Z,27.50
2019-02-02T07:29:29.294Z,26.75
2019-02-02T07:31:59.877Z,28.37
2019-02-02T07:34:30.151Z,26.30
2019-02-02T07:37:00.196Z,28.93
2019-02-02T07:39:30.277Z,30.23
2019-02-02T07:42:00.225Z,27.00
2019-02-02T07:44:30.216Z,28.20
2019-02-02T07:47:01.485Z,29.87
2019-02-02T07:49:31.523Z,28.60
2019-02-02T07:52:01.645Z,28.00
2019-02-02T07:54:33.118Z,30.57
2019-02-02T07:57:05.670Z,31.27
2019-02-02T07:59:35.815Z,30.70
2019-02-02T08:02:06.911Z,28.30
2019-02-02T08:04:37.165Z,27.40
2019-02-02T08:07:07.116Z,29.40
2019-02-02T08:09:37.166Z,34.92
2019-02-02T08:12:07.333Z,33.90
2019-02-02T08:14:37.684Z,29.60
2019-02-02T08:17:08.056Z,33.67
2019-02-02T08:19:38.397Z,27.80
2019-02-02T08:22:09.288Z,30.32
2019-02-02T08:24:40.873Z,30.63
2019-02-02T08:27:11.180Z,30.10
2019-02-02T08:29:42.945Z,30.02
2019-02-02T08:32:12.969Z,28.02
2019-02-02T08:34:42.985Z,35.17
2019-02-02T08:37:13.998Z,32.00
2019-02-02T08:39:44.444Z,32.17
2019-02-02T08:42:14.871Z,34.07
2019-02-02T08:44:44.681Z,35.50
2019-02-02T08:47:14.871Z,33.53
2019-02-02T08:49:45.123Z,33.73
2019-02-02T08:52:15.540Z,34.03
2019-02-02T08:54:45.944Z,32.17
2019-02-02T08:57:15.874Z,36.63
2019-02-02T08:59:45.958Z,34.20
2019-02-02T09:02:15.941Z,35.23
2019-02-02T09:04:46.163Z,39.07
2019-02-02T09:07:16.012Z,39.33
2019-02-02T09:09:48.605Z,40.30
2019-02-02T09:12:18.834Z,36.23
2019-02-02T09:14:48.847Z,37.85
2019-02-02T09:17:19.264Z,36.47
2019-02-02T09:19:49.358Z,39.47
2019-02-02T09:22:20.725Z,36.40
2019-02-02T09:24:51.932Z,37.47
2019-02-02T09:27:22.274Z,31.60
2019-02-02T09:29:52.436Z,40.23
2019-02-02T09:32:22.631Z,39.00
2019-02-02T09:34:54.353Z,36.70
2019-02-02T09:37:24.578Z,37.90
2019-02-02T09:39:54.795Z,37.43
2019-02-02T09:42:27.636Z,35.30
2019-02-02T09:44:59.262Z,38.63
2019-02-02T09:47:29.498Z,37.43
2019-02-02T09:49:59.480Z,37.70
2019-02-02T09:52:30.468Z,35.43
2019-02-02T09:55:05.499Z,35.47
2019-02-02T09:57:36.979Z,41.40
2019-02-02T10:00:11.843Z,34.33
2019-02-02T10:02:42.281Z,33.65
2019-02-02T10:05:12.511Z,37.00
2019-02-02T10:07:42.607Z,36.90
2019-02-02T10:10:16.965Z,35.23
2019-02-02T10:12:55.977Z,34.40
2019-02-02T10:15:27.780Z,33.97
2019-02-02T10:17:58.878Z,37.17
2019-02-02T10:20:44.302Z,39.20
2019-02-02T10:23:14.365Z,33.58
2019-02-02T10:25:44.952Z,34.40
2019-02-02T10:28:15.097Z,37.13
2019-02-02T10:30:45.524Z,34.73
2019-02-02T10:33:17.371Z,32.57
2019-02-02T10:35:47.469Z,31.17
2019-02-02T10:38:17.628Z,31.67
2019-02-02T10:40:49.527Z,31.73
2019-02-02T10:43:20.186Z,31.03
2019-02-02T10:45:50.274Z,33.70
2019-02-02T10:48:20.379Z,33.30
2019-02-02T10:50:50.603Z,31.37
2019-02-02T10:53:20.554Z,32.58
2019-02-02T10:55:50.984Z,31.57
2019-02-02T10:58:21.296Z,29.52
2019-02-02T11:00:51.516Z,30.80
2019-02-02T11:03:22.944Z,30.50
2019-02-02T11:05:55.128Z,31.70
2019-02-02T11:08:26.925Z,31.23
2019-02-02T11:10:58.803Z,30.47
2019-02-02T11:13:29.992Z,34.67
2019-02-02T11:16:00.271Z,36.87
2019-02-02T11:18:32.021Z,38.87
2019-02-02T11:21:02.207Z,37.07
2019-02-02T11:23:32.186Z,38.80
2019-02-02T11:26:02.485Z,37.07
2019-02-02T11:28:37.613Z,36.17
2019-02-02T11:31:12.728Z,36.57
2019-02-02T11:33:46.417Z,38.70
2019-02-02T11:36:16.843Z,39.13
2019-02-02T11:38:49.399Z,35.80
2019-02-02T11:41:19.646Z,35.10
2019-02-02T11:43:50.986Z,37.07
2019-02-02T11:46:25.314Z,38.33
2019-02-02T11:48:55.919Z,40.73
2019-02-02T11:51:26.074Z,43.87
2019-02-02T11:53:56.522Z,47.17
2019-02-02T11:56:26.668Z,42.97
2019-02-02T11:58:57.127Z,48.13
2019-02-02T12:01:27.391Z,43.07
2019-02-02T12:03:57.461Z,45.23
2019-02-02T12:06:27.713Z,42.97
2019-02-02T12:08:57.889Z,42.90
2019-02-02T12:11:28.306Z,44.50
2019-02-02T12:13:58.241Z,42.53
2019-02-02T12:16:33.117Z,47.87
2019-02-02T12:19:03.108Z,42.77
2019-02-02T12:21:35.367Z,46.35
2019-02-02T12:24:15.895Z,47.73
2019-02-02T12:26:44.115Z,46.57
2019-02-02T12:29:16.681Z,42.27
2019-02-02T12:31:49.678Z,44.90
2019-02-02T12:34:19.527Z,41.57
2019-02-02T12:36:49.612Z,46.57
2019-02-02T12:39:22.721Z,48.23
2019-02-02T12:41:53.714Z,42.93
2019-02-02T12:44:23.770Z,49.60
2019-02-02T12:46:53.683Z,46.33
2019-02-02T12:49:26.464Z,43.43
2019-02-02T12:51:56.412Z,51.70
2019-02-02T12:54:29.009Z,48.90
2019-02-02T12:56:59.056Z,44.73
2019-02-02T12:59:31.121Z,48.33
2019-02-02T13:02:01.141Z,47.17
2019-02-02T13:04:34.213Z,46.42
2019-02-02T13:07:04.194Z,44.08
2019-02-02T13:09:34.176Z,46.95
2019-02-02T13:12:04.095Z,44.47
2019-02-02T13:14:34.933Z,48.37
2019-02-02T13:17:06.159Z,53.13
2019-02-02T13:19:43.309Z,51.10
2019-02-02T13:22:13.341Z,52.47
2019-02-02T13:24:45.456Z,47.17
2019-02-02T13:27:17.942Z,48.87
2019-02-02T13:29:52.238Z,55.35
2019-02-02T13:32:22.225Z,50.53
2019-02-02T13:34:52.136Z,50.88
2019-02-02T13:37:22.716Z,53.90
2019-02-02T13:39:52.819Z,51.05
2019-02-02T13:42:23.018Z,54.07
2019-02-02T13:44:53.038Z,53.07
2019-02-02T13:47:23.301Z,52.70
2019-02-02T13:49:53.818Z,55.90
2019-02-02T13:52:24.081Z,53.73
2019-02-02T13:54:54.038Z,57.07
2019-02-02T13:57:24.198Z,55.75
2019-02-02T13:59:54.178Z,52.13
2019-02-02T14:02:24.182Z,56.40
2019-02-02T14:04:54.673Z,57.53
2019-02-02T14:07:24.725Z,54.30
2019-02-02T14:09:54.568Z,49.67
2019-02-02T14:12:24.457Z,52.03
2019-02-02T14:14:54.282Z,53.63
2019-02-02T14:17:24.417Z,51.33
2019-02-02T14:19:54.313Z,51.90
2019-02-02T14:22:27.044Z,52.53
2019-02-02T14:24:56.833Z,50.53
2019-02-02T14:27:29.952Z,54.67
2019-02-02T14:29:59.728Z,57.13
2019-02-02T14:32:29.666Z,54.10
2019-02-02T14:34:59.769Z,56.70
2019-02-02T14:37:29.624Z,50.73
2019-02-02T14:39:59.641Z,57.07
2019-02-02T14:42:29.577Z,54.80
2019-02-02T14:45:00.392Z,55.50
2019-02-02T14:47:30.180Z,54.23
2019-02-02T14:50:00.214Z,55.85
2019-02-02T14:52:30.024Z,58.57
2019-02-02T14:54:59.908Z,55.77
2019-02-02T14:57:29.718Z,57.73
2019-02-02T14:59:59.801Z,59.87
2019-02-02T15:02:29.600Z,59.50
2019-02-02T15:04:59.403Z,61.70
2019-02-02T15:07:29.366Z,65.20
2019-02-02T15:09:59.305Z,58.97
2019-02-02T15:12:29.270Z,55.40
2019-02-02T15:14:59.195Z,59.97
2019-02-02T15:17:29.049Z,57.37
2019-02-02T15:19:59.028Z,64.42
2019-02-02T15:22:28.774Z,61.77
2019-02-02T15:24:58.699Z,59.00
2019-02-02T15:27:28.678Z,61.15
2019-02-02T15:29:58.509Z,57.50
2019-02-02T15:32:28.559Z,59.80
2019-02-02T15:34:58.457Z,58.73
2019-02-02T15:37:28.520Z,58.40
2019-02-02T15:39:58.496Z,62.63
2019-02-02T15:42:28.649Z,55.57
2019-02-02T15:44:58.690Z,55.17
2019-02-02T15:47:28.713Z,60.23
2019-02-02T15:49:58.632Z,56.67
2019-02-02T15:52:29.068Z,55.10
2019-02-02T15:54:59.069Z,59.23
2019-02-02T15:57:29.052Z,61.33
2019-02-02T15:59:58.911Z,57.88
2019-02-02T16:02:28.840Z,61.48
2019-02-02T16:04:59.146Z,54.30
2019-02-02T16:07:29.399Z,54.47
2019-02-02T16:09:59.163Z,54.13
2019-02-02T16:12:29.032Z,55.43
2019-02-02T16:14:58.931Z,61.33
2019-02-02T16:17:28.888Z,59.40
2019-02-02T16:19:58.771Z,58.23
2019-02-02T16:22:28.528Z,59.27
2019-02-02T16:24:58.337Z,62.60
2019-02-02T16:27:28.137Z,63.77
2019-02-02T16:29:57.990Z,57.78
2019-02-02T16:32:28.083Z,64.95
2019-02-02T16:34:57.923Z,64.13
2019-02-02T16:37:27.861Z,66.60
2019-02-02T16:39:57.911Z,61.93
2019-02-02T16:42:27.959Z,63.80
2019-02-02T16:44:57.815Z,61.33
2019-02-02T16:47:27.812Z,57.70
2019-02-02T16:49:57.768Z,59.55
2019-02-02T16:52:27.640Z,56.03
2019-02-02T16:54:58.069Z,63.87
2019-02-02T16:57:27.947Z,58.10
2019-02-02T16:59:57.824Z,62.50
2019-02-02T17:02:27.640Z,61.67
2019-02-02T17:04:57.621Z,62.78
2019-02-02T17:07:28.658Z,61.50
2019-02-02T17:09:59.229Z,59.20
2019-02-02T17:12:31.561Z,65.00
2019-02-02T17:15:01.767Z,63.02
2019-02-02T17:17:34.590Z,63.27
2019-02-02T17:20:07.338Z,60.93
2019-02-02T17:22:37.180Z,59.23
2019-02-02T17:25:08.830Z,58.37
2019-02-02T17:27:38.820Z,63.23
2019-02-02T17:30:10.844Z,62.30
2019-02-02T17:32:40.788Z,63.87
2019-02-02T17:35:11.317Z,66.10
2019-02-02T17:37:41.144Z,61.90
2019-02-02T17:40:22.336Z,65.67
2019-02-02T17:42:52.269Z,59.97
2019-02-02T17:45:26.972Z,61.83
2019-02-02T17:47:57.273Z,58.50
2019-02-02T17:50:28.233Z,61.00
2019-02-02T17:52:58.393Z,67.17
2019-02-02T17:55:28.796Z,69.83
2019-02-02T17:57:59.509Z,61.70
2019-02-02T18:00:41.707Z,64.77
2019-02-02T18:03:12.058Z,67.23
2019-02-02T18:05:42.269Z,63.53
2019-02-02T18:08:12.507Z,66.65
2019-02-02T18:10:45.469Z,66.93
2019-02-02T18:13:18.407Z,66.37
2019-02-02T18:15:53.902Z,68.60
2019-02-02T18:18:31.352Z,68.97
2019-02-02T18:21:01.345Z,63.67
2019-02-02T18:23:32.257Z,59.40
2019-02-02T18:26:02.127Z,65.60
2019-02-02T18:28:32.150Z,68.25
2019-02-02T18:31:02.921Z,67.47
2019-02-02T18:33:33.060Z,66.30
2019-02-02T18:36:06.146Z,66.63
2019-02-02T18:38:42.825Z,69.67
2019-02-02T18:41:12.958Z,62.90
2019-02-02T18:43:45.494Z,74.20
2019-02-02T18:46:19.473Z,71.10
2019-02-02T18:48:53.921Z,70.07
2019-02-02T18:51:24.796Z,70.13
2019-02-02T18:53:54.628Z,73.53
2019-02-02T18:56:25.003Z,71.47
2019-02-02T18:58:54.884Z,74.30
2019-02-02T19:01:24.947Z,73.77
2019-02-02T19:03:54.883Z,73.37
2019-02-02T19:06:24.640Z,76.77
2019-02-02T19:08:54.524Z,75.40
2019-02-02T19:11:24.652Z,75.90
2019-02-02T19:13:54.684Z,77.95
2019-02-02T19:16:24.706Z,75.70
2019-02-02T19:18:54.741Z,77.27
2019-02-02T19:21:24.452Z,78.60
2019-02-02T19:23:54.569Z,80.27
2019-02-02T19:26:24.464Z,77.03
2019-02-02T19:28:54.677Z,75.30
2019-02-02T19:31:26.776Z,77.73
2019-02-02T19:33:56.618Z,85.53
2019-02-02T19:36:29.885Z,76.00
2019-02-02T19:39:00.244Z,70.80
2019-02-02T19:41:34.291Z,78.37
2019-02-02T19:44:09.800Z,88.47
2019-02-02T19:46:39.796Z,76.67
2019-02-02T19:49:09.857Z,81.13
2019-02-02T19:51:40.035Z,77.20
2019-02-02T19:54:09.989Z,83.73
2019-02-02T19:56:39.892Z,79.47
2019-02-02T19:59:09.609Z,81.53
2019-02-02T20:01:39.648Z,72.50
2019-02-02T20:04:09.598Z,82.27
2019-02-02T20:06:40.482Z,77.10
2019-02-02T20:09:10.354Z,84.07
2019-02-02T20:11:41.091Z,81.63
2019-02-02T20:14:11.046Z,85.85
2019-02-02T20:16:41.039Z,81.53
2019-02-02T20:19:11.140Z,98.40
2019-02-02T20:21:44.402Z,92.40
2019-02-02T20:24:12.988Z,83.27
2019-02-02T20:26:42.829Z,86.45
2019-02-02T20:29:12.937Z,89.47
2019-02-02T20:31:43.004Z,93.80
2019-02-02T20:34:13.009Z,84.67
2019-02-02T20:36:43.646Z,91.83
2019-02-02T20:39:13.568Z,93.83
2019-02-02T20:41:43.691Z,77.37
2019-02-02T20:44:15.574Z,84.50
2019-02-02T20:46:45.489Z,79.37
2019-02-02T20:49:15.967Z,83.07
2019-02-02T20:51:45.950Z,96.10
2019-02-02T20:54:18.822Z,86.23
2019-02-02T20:56:47.551Z,88.87
2019-02-02T20:59:17.524Z,78.23
2019-02-02T21:01:47.552Z,87.17
2019-02-02T21:04:17.484Z,89.10
2019-02-02T21:06:47.724Z,82.07
2019-02-02T21:09:17.785Z,84.53
2019-02-02T21:11:56.678Z,89.47
2019-02-02T21:14:19.689Z,85.17
2019-02-02T21:16:50.393Z,80.03
2019-02-02T21:19:21.514Z,82.33
2019-02-02T21:21:52.591Z,88.10
2019-02-02T21:24:22.669Z,78.90
2019-02-02T21:26:53.027Z,79.70
2019-02-02T21:29:22.887Z,80.90
2019-02-02T21:31:53.198Z,75.83
2019-02-02T21:34:25.071Z,77.03
2019-02-02T21:36:56.690Z,71.40
2019-02-02T21:39:26.659Z,74.07
2019-02-02T21:41:59.630Z,75.70
2019-02-02T21:44:30.302Z,73.83
2019-02-02T21:47:00.256Z,76.53
2019-02-02T21:49:30.142Z,71.25
2019-02-02T21:52:00.260Z,78.33
2019-02-02T21:54:30.049Z,76.77
2019-02-02T21:57:00.463Z,76.90
2019-02-02T21:59:31.832Z,78.17
2019-02-02T22:02:01.807Z,77.43
2019-02-02T22:04:31.875Z,76.60
2019-02-02T22:07:01.867Z,75.90
2019-02-02T22:09:33.029Z,81.70
2019-02-02T22:12:03.059Z,81.23
2019-02-02T22:14:33.016Z,81.47
2019-02-02T22:17:03.991Z,84.70
2019-02-02T22:19:34.400Z,80.57
2019-02-02T22:22:05.332Z,77.17
2019-02-02T22:24:35.777Z,72.80
2019-02-02T22:27:05.895Z,72.53
2019-02-02T22:29:35.764Z,77.50
2019-02-02T22:32:06.953Z,75.57
2019-02-02T22:34:37.323Z,79.03
2019-02-02T22:37:07.459Z,90.93
2019-02-02T22:39:37.524Z,77.80
2019-02-02T22:42:07.465Z,80.35
2019-02-02T22:44:37.528Z,79.57
2019-02-02T22:47:08.079Z,82.67
2019-02-02T22:49:39.613Z,77.50
2019-02-02T22:52:10.715Z,89.93
2019-02-02T22:54:40.921Z,84.03
2019-02-02T22:57:11.331Z,75.10
2019-02-02T22:59:43.293Z,84.60
2019-02-02T23:02:17.226Z,90.57
2019-02-02T23:05:23.348Z,83.77
2019-02-02T23:08:22.801Z,85.67
2019-02-02T23:11:33.669Z,83.80
2019-02-02T23:14:30.332Z,80.80
2019-02-02T23:17:00.393Z,83.83
2019-02-02T23:19:30.711Z,89.40
2019-02-02T23:22:01.401Z,86.67
2019-02-02T23:24:31.344Z,88.60
2019-02-02T23:27:02.368Z,82.47
2019-02-02T23:29:32.258Z,86.60
2019-02-02T23:32:02.279Z,82.53
2019-02-02T23:34:32.243Z,86.80
2019-02-02T23:37:02.305Z,84.90
2019-02-02T23:39:32.460Z,92.83
2019-02-02T23:42:02.586Z,90.32
2019-02-02T23:44:33.579Z,88.27
2019-02-02T23:47:03.438Z,88.40
2019-02-02T23:49:33.207Z,94.33
2019-02-02T23:52:04.358Z,90.90
2019-02-02T23:54:34.403Z,88.17
2019-02-02T23:57:04.533Z,88.40
2019-02-02T23:59:35.350Z,92.00
